sensor_id;sensor_type;location;lat;lon;timestamp;P1;durP1;ratioP1;P2;durP2;ratioP2
53411;SDS011;39307;52.870;13.660;2022-12-15T00:01:20;79.45;;;52.63;;
53411;SDS011;39307;52.870;13.660;2022-12-15T00:03:46;80.88;;;53.05;;
53411;SDS011;39307;52.870;13.660;2022-12-15T00:06:12;86.00;;;55.30;;
53411;SDS011;39307;52.870;13.660;2022-12-15T00:08:39;82.10;;;53.53;;
53411;SDS011;39307;52.870;13.660;2022-12-15T00:11:05;76.57;;;50.63;;
53411;SDS011;39307;52.870;13.660;2022-12-15T00:13:31;76.37;;;50.13;;
53411;SDS011;39307;52.870;13.660;2022-12-15T00:15:58;76.18;;;49.90;;
53411;SDS011;39307;52.870;13.660;2022-12-15T00:18:24;80.80;;;51.38;;
53411;SDS011;39307;52.870;13.660;2022-12-15T00:20:50;75.83;;;49.87;;
53411;SDS011;39307;52.870;13.660;2022-12-15T00:23:24;81.43;;;51.35;;
53411;SDS011;39307;52.870;13.660;2022-12-15T00:25:51;78.13;;;50.75;;
53411;SDS011;39307;52.870;13.660;2022-12-15T00:28:18;74.70;;;47.95;;
53411;SDS011;39307;52.870;13.660;2022-12-15T00:30:44;74.27;;;48.60;;
53411;SDS011;39307;52.870;13.660;2022-12-15T00:33:10;78.13;;;50.70;;
53411;SDS011;39307;52.870;13.660;2022-12-15T00:35:37;75.03;;;50.25;;
53411;SDS011;39307;52.870;13.660;2022-12-15T00:38:07;77.53;;;51.78;;
53411;SDS011;39307;52.870;13.660;2022-12-15T00:40:34;77.33;;;50.13;;
53411;SDS011;39307;52.870;13.660;2022-12-15T00:43:00;77.68;;;49.72;;
53411;SDS011;39307;52.870;13.660;2022-12-15T00:45:26;74.78;;;49.75;;
53411;SDS011;39307;52.870;13.660;2022-12-15T00:47:52;80.28;;;51.22;;
53411;SDS011;39307;52.870;13.660;2022-12-15T00:50:19;75.95;;;49.70;;
53411;SDS011;39307;52.870;13.660;2022-12-15T00:52:45;79.47;;;51.80;;
53411;SDS011;39307;52.870;13.660;2022-12-15T00:55:11;79.18;;;51.20;;
53411;SDS011;39307;52.870;13.660;2022-12-15T00:57:37;78.43;;;50.75;;
53411;SDS011;39307;52.870;13.660;2022-12-15T01:00:04;75.30;;;48.25;;
53411;SDS011;39307;52.870;13.660;2022-12-15T01:02:31;74.93;;;48.35;;
53411;SDS011;39307;52.870;13.660;2022-12-15T01:04:57;74.90;;;48.77;;
53411;SDS011;39307;52.870;13.660;2022-12-15T01:07:23;73.05;;;47.47;;
53411;SDS011;39307;52.870;13.660;2022-12-15T01:09:50;74.72;;;49.08;;
53411;SDS011;39307;52.870;13.660;2022-12-15T01:12:16;74.27;;;48.27;;
53411;SDS011;39307;52.870;13.660;2022-12-15T01:14:42;78.40;;;50.10;;
53411;SDS011;39307;52.870;13.660;2022-12-15T01:17:08;78.00;;;49.83;;
53411;SDS011;39307;52.870;13.660;2022-12-15T01:19:35;80.10;;;50.47;;
53411;SDS011;39307;52.870;13.660;2022-12-15T01:22:01;77.30;;;49.95;;
53411;SDS011;39307;52.870;13.660;2022-12-15T01:24:27;74.90;;;50.13;;
53411;SDS011;39307;52.870;13.660;2022-12-15T01:26:53;78.78;;;51.72;;
53411;SDS011;39307;52.870;13.660;2022-12-15T01:29:20;81.13;;;51.17;;
53411;SDS011;39307;52.870;13.660;2022-12-15T01:31:46;77.20;;;49.72;;
53411;SDS011;39307;52.870;13.660;2022-12-15T01:34:12;83.60;;;54.03;;
53411;SDS011;39307;52.870;13.660;2022-12-15T01:36:38;80.72;;;52.75;;
53411;SDS011;39307;52.870;13.660;2022-12-15T01:39:05;79.57;;;51.93;;
53411;SDS011;39307;52.870;13.660;2022-12-15T01:41:31;79.45;;;51.50;;
53411;SDS011;39307;52.870;13.660;2022-12-15T01:44:16;79.60;;;51.70;;
53411;SDS011;39307;52.870;13.660;2022-12-15T01:46:50;77.90;;;50.13;;
53411;SDS011;39307;52.870;13.660;2022-12-15T01:49:21;75.10;;;49.05;;
53411;SDS011;39307;52.870;13.660;2022-12-15T01:51:52;77.75;;;51.55;;
53411;SDS011;39307;52.870;13.660;2022-12-15T01:54:36;76.97;;;49.65;;
53411;SDS011;39307;52.870;13.660;2022-12-15T01:57:11;78.95;;;51.58;;
53411;SDS011;39307;52.870;13.660;2022-12-15T01:59:46;77.75;;;51.53;;
53411;SDS011;39307;52.870;13.660;2022-12-15T02:02:18;80.45;;;51.80;;
53411;SDS011;39307;52.870;13.660;2022-12-15T02:04:47;78.32;;;51.38;;
53411;SDS011;39307;52.870;13.660;2022-12-15T02:07:16;76.33;;;50.43;;
53411;SDS011;39307;52.870;13.660;2022-12-15T02:09:42;79.95;;;51.50;;
53411;SDS011;39307;52.870;13.660;2022-12-15T02:15:10;82.32;;;53.38;;
53411;SDS011;39307;52.870;13.660;2022-12-15T02:29:29;86.22;;;54.65;;
53411;SDS011;39307;52.870;13.660;2022-12-15T02:39:41;84.73;;;54.87;;
53411;SDS011;39307;52.870;13.660;2022-12-15T02:42:11;78.18;;;50.58;;
53411;SDS011;39307;52.870;13.660;2022-12-15T02:44:48;76.43;;;48.67;;
53411;SDS011;39307;52.870;13.660;2022-12-15T02:47:30;77.33;;;50.67;;
53411;SDS011;39307;52.870;13.660;2022-12-15T02:56:03;82.70;;;52.03;;
53411;SDS011;39307;52.870;13.660;2022-12-15T02:58:47;83.18;;;52.63;;
53411;SDS011;39307;52.870;13.660;2022-12-15T03:04:00;80.00;;;52.13;;
53411;SDS011;39307;52.870;13.660;2022-12-15T03:06:28;80.07;;;51.97;;
53411;SDS011;39307;52.870;13.660;2022-12-15T03:08:54;82.53;;;53.20;;
53411;SDS011;39307;52.870;13.660;2022-12-15T03:11:20;83.10;;;53.90;;
53411;SDS011;39307;52.870;13.660;2022-12-15T03:13:47;86.80;;;54.70;;
53411;SDS011;39307;52.870;13.660;2022-12-15T03:16:13;85.30;;;53.58;;
53411;SDS011;39307;52.870;13.660;2022-12-15T03:18:39;84.68;;;53.75;;
53411;SDS011;39307;52.870;13.660;2022-12-15T03:21:05;86.18;;;54.45;;
53411;SDS011;39307;52.870;13.660;2022-12-15T03:23:31;86.47;;;55.38;;
53411;SDS011;39307;52.870;13.660;2022-12-15T03:25:58;87.72;;;55.40;;
53411;SDS011;39307;52.870;13.660;2022-12-15T03:28:24;83.80;;;53.80;;
53411;SDS011;39307;52.870;13.660;2022-12-15T03:30:50;84.55;;;53.22;;
53411;SDS011;39307;52.870;13.660;2022-12-15T03:33:16;82.80;;;52.97;;
53411;SDS011;39307;52.870;13.660;2022-12-15T03:35:42;83.78;;;52.85;;
53411;SDS011;39307;52.870;13.660;2022-12-15T03:38:08;83.25;;;52.90;;
53411;SDS011;39307;52.870;13.660;2022-12-15T03:40:34;82.67;;;50.73;;
53411;SDS011;39307;52.870;13.660;2022-12-15T03:43:01;82.30;;;52.35;;
53411;SDS011;39307;52.870;13.660;2022-12-15T03:45:27;77.82;;;50.75;;
53411;SDS011;39307;52.870;13.660;2022-12-15T03:47:53;81.78;;;52.20;;
53411;SDS011;39307;52.870;13.660;2022-12-15T03:50:21;81.53;;;53.10;;
53411;SDS011;39307;52.870;13.660;2022-12-15T03:52:54;81.95;;;52.83;;
53411;SDS011;39307;52.870;13.660;2022-12-15T03:55:26;82.00;;;51.58;;
53411;SDS011;39307;52.870;13.660;2022-12-15T03:57:53;81.68;;;52.30;;
53411;SDS011;39307;52.870;13.660;2022-12-15T04:00:19;83.22;;;52.38;;
53411;SDS011;39307;52.870;13.660;2022-12-15T04:02:46;79.97;;;51.33;;
53411;SDS011;39307;52.870;13.660;2022-12-15T04:05:17;79.03;;;49.90;;
53411;SDS011;39307;52.870;13.660;2022-12-15T04:07:46;77.72;;;51.05;;
53411;SDS011;39307;52.870;13.660;2022-12-15T04:10:12;78.65;;;50.92;;
53411;SDS011;39307;52.870;13.660;2022-12-15T04:12:39;80.67;;;51.50;;
53411;SDS011;39307;52.870;13.660;2022-12-15T04:15:05;77.47;;;49.40;;
53411;SDS011;39307;52.870;13.660;2022-12-15T04:17:32;84.68;;;51.60;;
53411;SDS011;39307;52.870;13.660;2022-12-15T04:19:59;84.00;;;51.25;;
53411;SDS011;39307;52.870;13.660;2022-12-15T04:22:25;77.47;;;49.83;;
53411;SDS011;39307;52.870;13.660;2022-12-15T04:24:51;78.47;;;49.78;;
53411;SDS011;39307;52.870;13.660;2022-12-15T04:27:17;78.22;;;50.30;;
53411;SDS011;39307;52.870;13.660;2022-12-15T04:29:44;78.40;;;49.97;;
53411;SDS011;39307;52.870;13.660;2022-12-15T04:32:10;78.45;;;50.08;;
53411;SDS011;39307;52.870;13.660;2022-12-15T04:34:36;80.47;;;50.97;;
53411;SDS011;39307;52.870;13.660;2022-12-15T04:37:02;79.72;;;49.75;;
53411;SDS011;39307;52.870;13.660;2022-12-15T04:39:35;75.03;;;48.80;;
53411;SDS011;39307;52.870;13.660;2022-12-15T04:42:02;73.55;;;48.83;;
53411;SDS011;39307;52.870;13.660;2022-12-15T04:44:29;76.82;;;48.22;;
53411;SDS011;39307;52.870;13.660;2022-12-15T04:46:55;80.32;;;50.05;;
53411;SDS011;39307;52.870;13.660;2022-12-15T04:49:21;74.72;;;48.03;;
53411;SDS011;39307;52.870;13.660;2022-12-15T04:51:48;76.30;;;50.55;;
53411;SDS011;39307;52.870;13.660;2022-12-15T04:54:14;77.97;;;50.20;;
53411;SDS011;39307;52.870;13.660;2022-12-15T04:56:40;75.80;;;49.58;;
53411;SDS011;39307;52.870;13.660;2022-12-15T04:59:06;77.82;;;50.67;;
53411;SDS011;39307;52.870;13.660;2022-12-15T05:01:32;76.75;;;50.03;;
53411;SDS011;39307;52.870;13.660;2022-12-15T05:03:59;82.73;;;53.10;;
53411;SDS011;39307;52.870;13.660;2022-12-15T05:06:25;88.05;;;55.20;;
53411;SDS011;39307;52.870;13.660;2022-12-15T05:08:52;95.20;;;58.97;;
53411;SDS011;39307;52.870;13.660;2022-12-15T05:11:18;108.43;;;63.42;;
53411;SDS011;39307;52.870;13.660;2022-12-15T05:13:44;104.10;;;63.03;;
53411;SDS011;39307;52.870;13.660;2022-12-15T05:16:10;108.75;;;64.05;;
53411;SDS011;39307;52.870;13.660;2022-12-15T05:18:37;109.50;;;62.28;;
53411;SDS011;39307;52.870;13.660;2022-12-15T05:21:03;111.38;;;64.88;;
53411;SDS011;39307;52.870;13.660;2022-12-15T05:23:29;106.65;;;63.67;;
53411;SDS011;39307;52.870;13.660;2022-12-15T05:25:57;109.37;;;64.10;;
53411;SDS011;39307;52.870;13.660;2022-12-15T05:28:23;108.53;;;62.75;;
53411;SDS011;39307;52.870;13.660;2022-12-15T05:30:49;101.47;;;60.30;;
53411;SDS011;39307;52.870;13.660;2022-12-15T05:33:15;104.43;;;62.60;;
53411;SDS011;39307;52.870;13.660;2022-12-15T05:35:44;95.82;;;58.75;;
53411;SDS011;39307;52.870;13.660;2022-12-15T05:38:10;98.35;;;58.15;;
53411;SDS011;39307;52.870;13.660;2022-12-15T05:40:36;96.55;;;56.92;;
53411;SDS011;39307;52.870;13.660;2022-12-15T05:43:03;96.25;;;59.05;;
53411;SDS011;39307;52.870;13.660;2022-12-15T05:45:29;99.30;;;60.35;;
53411;SDS011;39307;52.870;13.660;2022-12-15T05:47:55;99.77;;;59.67;;
53411;SDS011;39307;52.870;13.660;2022-12-15T05:50:21;100.07;;;59.17;;
53411;SDS011;39307;52.870;13.660;2022-12-15T05:52:48;99.03;;;58.60;;
53411;SDS011;39307;52.870;13.660;2022-12-15T05:55:15;96.10;;;58.10;;
53411;SDS011;39307;52.870;13.660;2022-12-15T05:57:41;102.43;;;60.42;;
53411;SDS011;39307;52.870;13.660;2022-12-15T06:00:08;101.93;;;60.05;;
53411;SDS011;39307;52.870;13.660;2022-12-15T06:02:34;103.50;;;60.38;;
53411;SDS011;39307;52.870;13.660;2022-12-15T06:05:01;102.73;;;60.70;;
53411;SDS011;39307;52.870;13.660;2022-12-15T06:07:27;100.18;;;59.85;;
53411;SDS011;39307;52.870;13.660;2022-12-15T06:09:53;100.93;;;58.83;;
53411;SDS011;39307;52.870;13.660;2022-12-15T06:12:19;96.37;;;58.13;;
53411;SDS011;39307;52.870;13.660;2022-12-15T06:14:46;97.65;;;57.72;;
53411;SDS011;39307;52.870;13.660;2022-12-15T06:17:12;92.75;;;56.72;;
53411;SDS011;39307;52.870;13.660;2022-12-15T06:19:38;98.87;;;56.30;;
53411;SDS011;39307;52.870;13.660;2022-12-15T06:22:04;98.03;;;57.05;;
53411;SDS011;39307;52.870;13.660;2022-12-15T06:24:31;94.38;;;55.58;;
53411;SDS011;39307;52.870;13.660;2022-12-15T06:26:57;89.05;;;55.28;;
53411;SDS011;39307;52.870;13.660;2022-12-15T06:29:23;91.77;;;56.93;;
53411;SDS011;39307;52.870;13.660;2022-12-15T06:31:49;92.07;;;54.72;;
53411;SDS011;39307;52.870;13.660;2022-12-15T06:34:16;92.43;;;57.17;;
53411;SDS011;39307;52.870;13.660;2022-12-15T06:36:42;92.03;;;53.78;;
53411;SDS011;39307;52.870;13.660;2022-12-15T06:39:10;89.28;;;54.58;;
53411;SDS011;39307;52.870;13.660;2022-12-15T06:41:37;91.53;;;54.25;;
53411;SDS011;39307;52.870;13.660;2022-12-15T06:44:04;88.97;;;53.30;;
53411;SDS011;39307;52.870;13.660;2022-12-15T06:46:30;84.20;;;51.35;;
53411;SDS011;39307;52.870;13.660;2022-12-15T06:48:58;91.57;;;55.03;;
53411;SDS011;39307;52.870;13.660;2022-12-15T06:51:24;86.20;;;52.03;;
53411;SDS011;39307;52.870;13.660;2022-12-15T06:53:50;92.63;;;54.90;;
53411;SDS011;39307;52.870;13.660;2022-12-15T06:56:21;94.03;;;55.42;;
53411;SDS011;39307;52.870;13.660;2022-12-15T06:58:56;96.30;;;55.88;;
53411;SDS011;39307;52.870;13.660;2022-12-15T07:01:23;94.20;;;54.67;;
53411;SDS011;39307;52.870;13.660;2022-12-15T07:03:50;92.47;;;53.97;;
53411;SDS011;39307;52.870;13.660;2022-12-15T07:06:17;95.82;;;55.55;;
53411;SDS011;39307;52.870;13.660;2022-12-15T07:08:43;97.68;;;55.88;;
53411;SDS011;39307;52.870;13.660;2022-12-15T07:11:14;99.35;;;56.80;;
53411;SDS011;39307;52.870;13.660;2022-12-15T07:13:40;100.50;;;57.35;;
53411;SDS011;39307;52.870;13.660;2022-12-15T07:16:07;96.22;;;57.03;;
53411;SDS011;39307;52.870;13.660;2022-12-15T07:18:35;99.15;;;58.15;;
53411;SDS011;39307;52.870;13.660;2022-12-15T07:21:02;101.47;;;57.33;;
53411;SDS011;39307;52.870;13.660;2022-12-15T07:23:29;97.93;;;58.17;;
53411;SDS011;39307;52.870;13.660;2022-12-15T07:25:56;103.85;;;59.67;;
53411;SDS011;39307;52.870;13.660;2022-12-15T07:28:22;103.28;;;59.22;;
53411;SDS011;39307;52.870;13.660;2022-12-15T07:30:48;106.28;;;58.22;;
53411;SDS011;39307;52.870;13.660;2022-12-15T07:33:15;101.07;;;58.25;;
53411;SDS011;39307;52.870;13.660;2022-12-15T07:35:41;104.80;;;58.90;;
53411;SDS011;39307;52.870;13.660;2022-12-15T07:38:07;105.90;;;59.88;;
53411;SDS011;39307;52.870;13.660;2022-12-15T07:40:33;102.10;;;58.85;;
53411;SDS011;39307;52.870;13.660;2022-12-15T07:42:59;103.10;;;59.73;;
53411;SDS011;39307;52.870;13.660;2022-12-15T07:45:26;100.05;;;57.65;;
53411;SDS011;39307;52.870;13.660;2022-12-15T07:47:52;100.95;;;58.97;;
53411;SDS011;39307;52.870;13.660;2022-12-15T07:50:18;102.20;;;58.83;;
53411;SDS011;39307;52.870;13.660;2022-12-15T07:52:45;104.57;;;60.50;;
53411;SDS011;39307;52.870;13.660;2022-12-15T07:55:11;96.57;;;56.22;;
53411;SDS011;39307;52.870;13.660;2022-12-15T07:57:37;99.32;;;57.33;;
53411;SDS011;39307;52.870;13.660;2022-12-15T08:00:04;100.63;;;57.92;;
53411;SDS011;39307;52.870;13.660;2022-12-15T08:02:30;104.43;;;58.85;;
53411;SDS011;39307;52.870;13.660;2022-12-15T08:04:57;97.50;;;57.45;;
53411;SDS011;39307;52.870;13.660;2022-12-15T08:07:23;101.30;;;58.30;;
53411;SDS011;39307;52.870;13.660;2022-12-15T08:09:50;97.20;;;56.20;;
53411;SDS011;39307;52.870;13.660;2022-12-15T08:12:17;96.47;;;57.00;;
53411;SDS011;39307;52.870;13.660;2022-12-15T08:14:43;102.75;;;59.88;;
53411;SDS011;39307;52.870;13.660;2022-12-15T08:17:09;105.32;;;59.33;;
53411;SDS011;39307;52.870;13.660;2022-12-15T08:19:36;97.72;;;58.25;;
53411;SDS011;39307;52.870;13.660;2022-12-15T08:22:02;98.85;;;57.42;;
53411;SDS011;39307;52.870;13.660;2022-12-15T08:24:28;99.70;;;57.55;;
53411;SDS011;39307;52.870;13.660;2022-12-15T08:26:55;98.30;;;55.73;;
53411;SDS011;39307;52.870;13.660;2022-12-15T08:29:23;102.72;;;57.78;;
53411;SDS011;39307;52.870;13.660;2022-12-15T08:31:49;100.25;;;56.85;;
53411;SDS011;39307;52.870;13.660;2022-12-15T08:34:15;100.55;;;54.45;;
53411;SDS011;39307;52.870;13.660;2022-12-15T08:36:41;95.03;;;55.35;;
53411;SDS011;39307;52.870;13.660;2022-12-15T08:39:07;95.00;;;55.30;;
53411;SDS011;39307;52.870;13.660;2022-12-15T08:41:33;97.35;;;55.53;;
53411;SDS011;39307;52.870;13.660;2022-12-15T08:44:00;93.07;;;55.33;;
53411;SDS011;39307;52.870;13.660;2022-12-15T08:46:28;96.57;;;56.10;;
53411;SDS011;39307;52.870;13.660;2022-12-15T08:48:56;90.93;;;53.20;;
53411;SDS011;39307;52.870;13.660;2022-12-15T08:51:23;93.78;;;54.30;;
53411;SDS011;39307;52.870;13.660;2022-12-15T08:53:51;96.82;;;54.47;;
53411;SDS011;39307;52.870;13.660;2022-12-15T08:56:19;93.43;;;54.90;;
53411;SDS011;39307;52.870;13.660;2022-12-15T08:58:47;91.72;;;54.63;;
53411;SDS011;39307;52.870;13.660;2022-12-15T09:01:15;92.00;;;54.95;;
53411;SDS011;39307;52.870;13.660;2022-12-15T09:03:45;90.53;;;53.60;;
53411;SDS011;39307;52.870;13.660;2022-12-15T09:06:15;86.35;;;53.95;;
53411;SDS011;39307;52.870;13.660;2022-12-15T09:08:43;86.83;;;52.03;;
53411;SDS011;39307;52.870;13.660;2022-12-15T09:11:10;91.38;;;53.03;;
53411;SDS011;39307;52.870;13.660;2022-12-15T09:13:37;89.05;;;53.45;;
53411;SDS011;39307;52.870;13.660;2022-12-15T09:16:04;88.90;;;53.25;;
53411;SDS011;39307;52.870;13.660;2022-12-15T09:18:32;88.53;;;52.40;;
53411;SDS011;39307;52.870;13.660;2022-12-15T09:21:02;89.97;;;53.58;;
53411;SDS011;39307;52.870;13.660;2022-12-15T09:23:30;88.95;;;53.80;;
53411;SDS011;39307;52.870;13.660;2022-12-15T09:26:04;85.43;;;51.53;;
53411;SDS011;39307;52.870;13.660;2022-12-15T09:28:33;88.63;;;52.58;;
53411;SDS011;39307;52.870;13.660;2022-12-15T09:31:07;87.45;;;52.40;;
53411;SDS011;39307;52.870;13.660;2022-12-15T09:33:41;85.03;;;52.35;;
53411;SDS011;39307;52.870;13.660;2022-12-15T09:36:08;93.47;;;55.15;;
53411;SDS011;39307;52.870;13.660;2022-12-15T09:38:36;89.70;;;53.53;;
53411;SDS011;39307;52.870;13.660;2022-12-15T09:43:45;88.25;;;53.72;;
53411;SDS011;39307;52.870;13.660;2022-12-15T09:46:22;91.90;;;55.53;;
53411;SDS011;39307;52.870;13.660;2022-12-15T09:49:09;87.93;;;54.38;;
53411;SDS011;39307;52.870;13.660;2022-12-15T09:51:49;87.93;;;56.22;;
53411;SDS011;39307;52.870;13.660;2022-12-15T09:54:36;94.10;;;56.70;;
53411;SDS011;39307;52.870;13.660;2022-12-15T09:57:11;88.63;;;53.13;;
53411;SDS011;39307;52.870;13.660;2022-12-15T10:02:24;89.30;;;54.35;;
53411;SDS011;39307;52.870;13.660;2022-12-15T10:08:10;87.80;;;53.13;;
53411;SDS011;39307;52.870;13.660;2022-12-15T10:13:23;90.43;;;52.55;;
53411;SDS011;39307;52.870;13.660;2022-12-15T10:16:02;85.90;;;53.20;;
53411;SDS011;39307;52.870;13.660;2022-12-15T10:19:08;84.55;;;53.03;;
53411;SDS011;39307;52.870;13.660;2022-12-15T10:21:41;99.13;;;57.40;;
53411;SDS011;39307;52.870;13.660;2022-12-15T10:24:15;90.60;;;55.70;;
53411;SDS011;39307;52.870;13.660;2022-12-15T10:26:45;91.80;;;54.42;;
53411;SDS011;39307;52.870;13.660;2022-12-15T10:32:17;86.25;;;55.35;;
53411;SDS011;39307;52.870;13.660;2022-12-15T10:34:51;84.93;;;54.83;;
53411;SDS011;39307;52.870;13.660;2022-12-15T10:37:18;86.93;;;54.72;;
53411;SDS011;39307;52.870;13.660;2022-12-15T10:39:46;83.67;;;53.00;;
53411;SDS011;39307;52.870;13.660;2022-12-15T10:42:20;84.20;;;51.67;;
53411;SDS011;39307;52.870;13.660;2022-12-15T10:44:55;81.00;;;52.53;;
53411;SDS011;39307;52.870;13.660;2022-12-15T10:47:24;83.13;;;53.67;;
53411;SDS011;39307;52.870;13.660;2022-12-15T10:49:54;78.93;;;52.50;;
53411;SDS011;39307;52.870;13.660;2022-12-15T10:52:40;78.97;;;52.47;;
53411;SDS011;39307;52.870;13.660;2022-12-15T10:58:03;77.93;;;50.03;;
53411;SDS011;39307;52.870;13.660;2022-12-15T11:00:40;77.10;;;50.38;;
53411;SDS011;39307;52.870;13.660;2022-12-15T11:03:22;77.80;;;49.67;;
53411;SDS011;39307;52.870;13.660;2022-12-15T11:05:50;70.97;;;48.55;;
53411;SDS011;39307;52.870;13.660;2022-12-15T11:08:18;74.28;;;48.72;;
53411;SDS011;39307;52.870;13.660;2022-12-15T11:10:51;69.43;;;46.95;;
53411;SDS011;39307;52.870;13.660;2022-12-15T11:13:20;70.72;;;46.45;;
53411;SDS011;39307;52.870;13.660;2022-12-15T11:15:48;65.55;;;45.40;;
53411;SDS011;39307;52.870;13.660;2022-12-15T11:20:51;66.50;;;43.67;;
53411;SDS011;39307;52.870;13.660;2022-12-15T11:23:40;70.88;;;44.63;;
53411;SDS011;39307;52.870;13.660;2022-12-15T11:26:14;61.40;;;42.38;;
53411;SDS011;39307;52.870;13.660;2022-12-15T11:28:53;65.05;;;43.80;;
53411;SDS011;39307;52.870;13.660;2022-12-15T11:31:35;62.85;;;41.97;;
53411;SDS011;39307;52.870;13.660;2022-12-15T11:34:09;60.22;;;42.10;;
53411;SDS011;39307;52.870;13.660;2022-12-15T11:36:43;66.63;;;45.00;;
53411;SDS011;39307;52.870;13.660;2022-12-15T11:42:09;68.07;;;44.40;;
53411;SDS011;39307;52.870;13.660;2022-12-15T11:45:01;59.43;;;42.37;;
53411;SDS011;39307;52.870;13.660;2022-12-15T11:52:56;59.72;;;41.55;;
53411;SDS011;39307;52.870;13.660;2022-12-15T11:58:47;57.55;;;39.58;;
53411;SDS011;39307;52.870;13.660;2022-12-15T12:01:34;56.90;;;40.00;;
53411;SDS011;39307;52.870;13.660;2022-12-15T12:10:02;58.57;;;39.93;;
53411;SDS011;39307;52.870;13.660;2022-12-15T12:15:55;56.28;;;39.25;;
53411;SDS011;39307;52.870;13.660;2022-12-15T12:18:48;57.33;;;39.25;;
53411;SDS011;39307;52.870;13.660;2022-12-15T12:21:28;54.00;;;37.60;;
53411;SDS011;39307;52.870;13.660;2022-12-15T12:24:15;51.88;;;37.00;;
53411;SDS011;39307;52.870;13.660;2022-12-15T12:26:49;55.75;;;38.50;;
53411;SDS011;39307;52.870;13.660;2022-12-15T12:29:39;53.85;;;38.10;;
53411;SDS011;39307;52.870;13.660;2022-12-15T12:37:59;55.45;;;38.10;;
53411;SDS011;39307;52.870;13.660;2022-12-15T12:43:52;53.60;;;36.95;;
53411;SDS011;39307;52.870;13.660;2022-12-15T12:45:56;54.42;;;37.28;;
53411;SDS011;39307;52.870;13.660;2022-12-15T12:48:49;52.50;;;36.55;;
53411;SDS011;39307;52.870;13.660;2022-12-15T12:54:01;51.42;;;35.33;;
53411;SDS011;39307;52.870;13.660;2022-12-15T13:01:55;55.50;;;37.70;;
53411;SDS011;39307;52.870;13.660;2022-12-15T13:09:24;50.25;;;35.85;;
53411;SDS011;39307;52.870;13.660;2022-12-15T13:12:02;54.05;;;36.95;;
53411;SDS011;39307;52.870;13.660;2022-12-15T13:14:40;54.23;;;35.53;;
53411;SDS011;39307;52.870;13.660;2022-12-15T13:17:12;52.20;;;36.53;;
53411;SDS011;39307;52.870;13.660;2022-12-15T13:22:27;54.95;;;36.90;;
53411;SDS011;39307;52.870;13.660;2022-12-15T13:25:01;52.78;;;36.83;;
53411;SDS011;39307;52.870;13.660;2022-12-15T13:27:51;51.33;;;35.95;;
53411;SDS011;39307;52.870;13.660;2022-12-15T13:30:20;51.95;;;34.97;;
53411;SDS011;39307;52.870;13.660;2022-12-15T13:32:50;52.92;;;35.83;;
53411;SDS011;39307;52.870;13.660;2022-12-15T13:35:36;50.80;;;35.47;;
53411;SDS011;39307;52.870;13.660;2022-12-15T13:38:07;54.45;;;36.75;;
53411;SDS011;39307;52.870;13.660;2022-12-15T13:45:58;52.58;;;36.60;;
53411;SDS011;39307;52.870;13.660;2022-12-15T13:51:09;51.90;;;35.67;;
53411;SDS011;39307;52.870;13.660;2022-12-15T13:53:47;52.97;;;35.55;;
53411;SDS011;39307;52.870;13.660;2022-12-15T14:01:58;52.27;;;37.87;;
53411;SDS011;39307;52.870;13.660;2022-12-15T14:04:24;51.55;;;36.90;;
53411;SDS011;39307;52.870;13.660;2022-12-15T14:07:00;51.17;;;36.53;;
53411;SDS011;39307;52.870;13.660;2022-12-15T14:09:28;50.30;;;35.70;;
53411;SDS011;39307;52.870;13.660;2022-12-15T14:11:59;52.13;;;36.63;;
53411;SDS011;39307;52.870;13.660;2022-12-15T14:14:28;55.95;;;37.88;;
53411;SDS011;39307;52.870;13.660;2022-12-15T14:16:58;55.75;;;39.05;;
53411;SDS011;39307;52.870;13.660;2022-12-15T14:19:26;60.47;;;42.40;;
53411;SDS011;39307;52.870;13.660;2022-12-15T14:22:16;60.30;;;43.22;;
53411;SDS011;39307;52.870;13.660;2022-12-15T14:24:49;62.97;;;43.55;;
53411;SDS011;39307;52.870;13.660;2022-12-15T14:27:27;60.77;;;41.77;;
53411;SDS011;39307;52.870;13.660;2022-12-15T14:30:10;55.80;;;39.63;;
53411;SDS011;39307;52.870;13.660;2022-12-15T14:32:42;54.13;;;38.35;;
53411;SDS011;39307;52.870;13.660;2022-12-15T14:35:16;54.50;;;38.67;;
53411;SDS011;39307;52.870;13.660;2022-12-15T14:37:50;62.92;;;38.65;;
53411;SDS011;39307;52.870;13.660;2022-12-15T14:40:20;52.92;;;37.17;;
53411;SDS011;39307;52.870;13.660;2022-12-15T14:42:47;53.20;;;36.83;;
53411;SDS011;39307;52.870;13.660;2022-12-15T14:45:21;55.50;;;37.30;;
53411;SDS011;39307;52.870;13.660;2022-12-15T14:47:52;54.13;;;37.58;;
53411;SDS011;39307;52.870;13.660;2022-12-15T14:50:23;55.47;;;37.58;;
53411;SDS011;39307;52.870;13.660;2022-12-15T14:52:54;47.38;;;34.88;;
53411;SDS011;39307;52.870;13.660;2022-12-15T14:58:02;53.33;;;36.85;;
53411;SDS011;39307;52.870;13.660;2022-12-15T15:00:57;54.83;;;37.55;;
53411;SDS011;39307;52.870;13.660;2022-12-15T15:03:36;53.25;;;36.50;;
53411;SDS011;39307;52.870;13.660;2022-12-15T15:08:41;53.15;;;36.25;;
53411;SDS011;39307;52.870;13.660;2022-12-15T15:13:42;52.42;;;36.30;;
53411;SDS011;39307;52.870;13.660;2022-12-15T15:16:13;55.67;;;37.83;;
53411;SDS011;39307;52.870;13.660;2022-12-15T15:18:43;53.15;;;38.03;;
53411;SDS011;39307;52.870;13.660;2022-12-15T15:21:23;54.85;;;38.00;;
53411;SDS011;39307;52.870;13.660;2022-12-15T15:23:58;57.58;;;39.20;;
53411;SDS011;39307;52.870;13.660;2022-12-15T15:26:26;58.30;;;39.27;;
53411;SDS011;39307;52.870;13.660;2022-12-15T15:28:53;54.45;;;37.80;;
53411;SDS011;39307;52.870;13.660;2022-12-15T15:31:36;55.63;;;38.88;;
53411;SDS011;39307;52.870;13.660;2022-12-15T15:34:03;58.17;;;39.80;;
53411;SDS011;39307;52.870;13.660;2022-12-15T15:36:33;56.67;;;38.65;;
53411;SDS011;39307;52.870;13.660;2022-12-15T15:39:07;55.03;;;38.80;;
53411;SDS011;39307;52.870;13.660;2022-12-15T15:41:40;58.05;;;39.70;;
53411;SDS011;39307;52.870;13.660;2022-12-15T15:44:13;62.35;;;41.83;;
53411;SDS011;39307;52.870;13.660;2022-12-15T15:46:43;61.20;;;41.15;;
53411;SDS011;39307;52.870;13.660;2022-12-15T15:49:13;63.38;;;42.85;;
53411;SDS011;39307;52.870;13.660;2022-12-15T15:51:42;61.40;;;42.40;;
53411;SDS011;39307;52.870;13.660;2022-12-15T15:54:15;59.35;;;41.50;;
53411;SDS011;39307;52.870;13.660;2022-12-15T15:56:47;68.00;;;46.00;;
53411;SDS011;39307;52.870;13.660;2022-12-15T15:59:14;73.55;;;49.25;;
53411;SDS011;39307;52.870;13.660;2022-12-15T16:01:42;73.40;;;47.77;;
53411;SDS011;39307;52.870;13.660;2022-12-15T16:04:09;70.13;;;48.38;;
53411;SDS011;39307;52.870;13.660;2022-12-15T16:06:36;72.22;;;47.60;;
53411;SDS011;39307;52.870;13.660;2022-12-15T16:09:02;73.20;;;47.37;;
53411;SDS011;39307;52.870;13.660;2022-12-15T16:11:29;69.00;;;46.42;;
53411;SDS011;39307;52.870;13.660;2022-12-15T16:13:55;68.13;;;47.15;;
53411;SDS011;39307;52.870;13.660;2022-12-15T16:16:23;68.38;;;47.35;;
53411;SDS011;39307;52.870;13.660;2022-12-15T16:18:53;67.20;;;45.92;;
53411;SDS011;39307;52.870;13.660;2022-12-15T16:21:19;71.45;;;47.35;;